sensor_id;sensor_type;location;lat;lon;timestamp;pressure;altitude;pressure_sealevel;temperature;humidity
47080;BME280;33067;49.296;14.470;2023-01-24T00:01:04;98562.24;;;3.72;49.31
47080;BME280;33067;49.296;14.470;2023-01-24T00:03:30;98561.35;;;3.38;50.28
47080;BME280;33067;49.296;14.470;2023-01-24T00:05:55;98561.41;;;3.99;49.22
47080;BME280;33067;49.296;14.470;2023-01-24T00:08:20;98557.90;;;3.99;48.73
47080;BME280;33067;49.296;14.470;2023-01-24T00:10:46;98556.98;;;3.07;50.74
47080;BME280;33067;49.296;14.470;2023-01-24T00:13:12;98554.02;;;3.66;50.39
47080;BME280;33067;49.296;14.470;2023-01-24T00:15:37;98557.01;;;3.33;50.29
47080;BME280;33067;49.296;14.470;2023-01-24T00:18:02;98557.72;;;3.90;50.06
47080;BME280;33067;49.296;14.470;2023-01-24T00:20:27;98557.10;;;3.77;49.37
47080;BME280;33067;49.296;14.470;2023-01-24T00:22:53;98557.33;;;4.26;49.42
47080;BME280;33067;49.296;14.470;2023-01-24T00:25:18;98557.47;;;3.57;49.68
47080;BME280;33067;49.296;14.470;2023-01-24T00:27:44;98557.50;;;4.21;49.27
47080;BME280;33067;49.296;14.470;2023-01-24T00:30:10;98556.60;;;3.87;48.88
47080;BME280;33067;49.296;14.470;2023-01-24T00:32:34;98554.29;;;4.23;48.96
47080;BME280;33067;49.296;14.470;2023-01-24T00:35:00;98556.20;;;3.71;49.49
47080;BME280;33067;49.296;14.470;2023-01-24T00:37:25;98559.42;;;3.36;50.11
47080;BME280;33067;49.296;14.470;2023-01-24T00:39:50;98560.16;;;3.08;50.98
47080;BME280;33067;49.296;14.470;2023-01-24T00:42:15;98559.52;;;3.44;51.06
47080;BME280;33067;49.296;14.470;2023-01-24T00:44:41;98564.67;;;3.57;51.17
47080;BME280;33067;49.296;14.470;2023-01-24T00:47:06;98567.26;;;3.51;50.78
47080;BME280;33067;49.296;14.470;2023-01-24T00:49:32;98569.05;;;3.90;49.74
47080;BME280;33067;49.296;14.470;2023-01-24T00:51:57;98573.22;;;3.27;50.41
47080;BME280;33067;49.296;14.470;2023-01-24T00:54:23;98572.16;;;3.08;50.99
47080;BME280;33067;49.296;14.470;2023-01-24T00:56:48;98573.77;;;3.81;50.53
47080;BME280;33067;49.296;14.470;2023-01-24T00:59:14;98574.83;;;3.35;51.37
47080;BME280;33067;49.296;14.470;2023-01-24T01:01:40;98569.63;;;3.86;50.54
47080;BME280;33067;49.296;14.470;2023-01-24T01:04:06;98570.77;;;3.52;50.05
47080;BME280;33067;49.296;14.470;2023-01-24T01:06:32;98574.93;;;3.50;50.25
47080;BME280;33067;49.296;14.470;2023-01-24T01:08:57;98576.77;;;4.07;49.97
47080;BME280;33067;49.296;14.470;2023-01-24T01:11:22;98577.92;;;3.37;50.52
47080;BME280;33067;49.296;14.470;2023-01-24T01:13:49;98574.67;;;2.86;49.30
47080;BME280;33067;49.296;14.470;2023-01-24T01:16:15;98576.09;;;4.52;48.33
47080;BME280;33067;49.296;14.470;2023-01-24T01:18:39;98576.13;;;4.39;48.53
47080;BME280;33067;49.296;14.470;2023-01-24T01:21:05;98577.80;;;4.67;48.13
47080;BME280;33067;49.296;14.470;2023-01-24T01:23:30;98574.59;;;4.43;48.59
47080;BME280;33067;49.296;14.470;2023-01-24T01:25:59;98574.15;;;4.60;48.05
47080;BME280;33067;49.296;14.470;2023-01-24T01:28:21;98573.89;;;3.32;50.53
47080;BME280;33067;49.296;14.470;2023-01-24T01:30:51;98574.20;;;4.21;48.96
47080;BME280;33067;49.296;14.470;2023-01-24T01:33:12;98572.91;;;4.03;49.23
47080;BME280;33067;49.296;14.470;2023-01-24T01:35:37;98576.40;;;4.11;48.98
47080;BME280;33067;49.296;14.470;2023-01-24T01:38:03;98577.38;;;3.78;50.00
47080;BME280;33067;49.296;14.470;2023-01-24T01:40:28;98576.46;;;4.25;49.00
47080;BME280;33067;49.296;14.470;2023-01-24T01:42:55;98580.11;;;4.10;49.41
47080;BME280;33067;49.296;14.470;2023-01-24T01:45:35;98575.28;;;4.35;48.87
47080;BME280;33067;49.296;14.470;2023-01-24T01:47:45;98574.40;;;4.41;48.79
47080;BME280;33067;49.296;14.470;2023-01-24T01:50:19;98574.55;;;4.65;48.76
47080;BME280;33067;49.296;14.470;2023-01-24T01:52:38;98572.26;;;4.78;48.36
47080;BME280;33067;49.296;14.470;2023-01-24T01:55:06;98572.76;;;4.56;48.88
47080;BME280;33067;49.296;14.470;2023-01-24T01:57:29;98571.48;;;4.72;48.32
47080;BME280;33067;49.296;14.470;2023-01-24T01:59:55;98573.55;;;4.76;47.89
47080;BME280;33067;49.296;14.470;2023-01-24T02:02:19;98575.01;;;4.99;47.70
47080;BME280;33067;49.296;14.470;2023-01-24T02:04:47;98575.52;;;5.22;47.64
47080;BME280;33067;49.296;14.470;2023-01-24T02:07:10;98580.05;;;4.70;47.99
47080;BME280;33067;49.296;14.470;2023-01-24T02:09:40;98584.88;;;5.05;47.62
47080;BME280;33067;49.296;14.470;2023-01-24T02:12:03;98587.64;;;5.01;47.62
47080;BME280;33067;49.296;14.470;2023-01-24T02:14:27;98587.37;;;4.68;48.29
47080;BME280;33067;49.296;14.470;2023-01-24T02:16:51;98583.97;;;4.68;48.45
47080;BME280;33067;49.296;14.470;2023-01-24T02:19:27;98585.90;;;4.59;48.43
47080;BME280;33067;49.296;14.470;2023-01-24T02:21:42;98587.25;;;4.18;48.81
47080;BME280;33067;49.296;14.470;2023-01-24T02:24:13;98587.39;;;3.88;49.56
47080;BME280;33067;49.296;14.470;2023-01-24T02:26:32;98585.65;;;3.95;49.62
47080;BME280;33067;49.296;14.470;2023-01-24T02:29:00;98588.50;;;4.24;49.89
47080;BME280;33067;49.296;14.470;2023-01-24T02:31:24;98587.08;;;3.38;51.12
47080;BME280;33067;49.296;14.470;2023-01-24T02:33:48;98580.70;;;3.46;51.68
47080;BME280;33067;49.296;14.470;2023-01-24T02:36:19;98582.28;;;2.75;52.46
47080;BME280;33067;49.296;14.470;2023-01-24T02:38:40;98584.84;;;3.53;51.00
47080;BME280;33067;49.296;14.470;2023-01-24T02:41:04;98584.37;;;2.99;52.66
47080;BME280;33067;49.296;14.470;2023-01-24T02:43:30;98581.06;;;3.30;52.21
47080;BME280;33067;49.296;14.470;2023-01-24T02:45:55;98580.57;;;2.90;53.21
47080;BME280;33067;49.296;14.470;2023-01-24T02:48:20;98579.56;;;3.65;52.29
47080;BME280;33067;49.296;14.470;2023-01-24T02:50:45;98580.57;;;3.98;51.43
47080;BME280;33067;49.296;14.470;2023-01-24T02:53:11;98583.85;;;3.85;50.61
47080;BME280;33067;49.296;14.470;2023-01-24T02:55:37;98582.81;;;3.89;50.52
47080;BME280;33067;49.296;14.470;2023-01-24T02:58:01;98583.97;;;4.34;49.40
47080;BME280;33067;49.296;14.470;2023-01-24T03:00:27;98586.90;;;3.75;50.96
47080;BME280;33067;49.296;14.470;2023-01-24T03:02:52;98586.47;;;3.53;50.96
47080;BME280;33067;49.296;14.470;2023-01-24T03:05:17;98586.59;;;3.59;50.91
47080;BME280;33067;49.296;14.470;2023-01-24T03:07:43;98587.57;;;3.73;50.31
47080;BME280;33067;49.296;14.470;2023-01-24T03:13:00;98589.40;;;3.73;50.44
47080;BME280;33067;49.296;14.470;2023-01-24T03:15:25;98593.55;;;3.11;51.69
47080;BME280;33067;49.296;14.470;2023-01-24T03:17:50;98596.96;;;3.21;51.35
47080;BME280;33067;49.296;14.470;2023-01-24T03:20:17;98598.82;;;2.63;53.06
47080;BME280;33067;49.296;14.470;2023-01-24T03:22:42;98592.64;;;3.32;52.91
47080;BME280;33067;49.296;14.470;2023-01-24T03:25:07;98588.29;;;3.08;53.10
47080;BME280;33067;49.296;14.470;2023-01-24T03:27:32;98584.52;;;3.54;51.56
47080;BME280;33067;49.296;14.470;2023-01-24T03:29:57;98584.53;;;3.46;51.62
47080;BME280;33067;49.296;14.470;2023-01-24T03:32:22;98592.72;;;2.95;52.91
47080;BME280;33067;49.296;14.470;2023-01-24T03:34:48;98591.39;;;3.28;52.56
47080;BME280;33067;49.296;14.470;2023-01-24T03:37:14;98587.96;;;3.70;51.77
47080;BME280;33067;49.296;14.470;2023-01-24T03:39:38;98588.42;;;3.42;51.28
47080;BME280;33067;49.296;14.470;2023-01-24T03:42:04;98587.37;;;3.40;51.34
47080;BME280;33067;49.296;14.470;2023-01-24T03:44:29;98587.64;;;3.45;51.06
47080;BME280;33067;49.296;14.470;2023-01-24T03:46:55;98588.39;;;4.25;50.06
47080;BME280;33067;49.296;14.470;2023-01-24T03:49:20;98590.66;;;3.92;50.87
47080;BME280;33067;49.296;14.470;2023-01-24T03:51:45;98590.15;;;3.55;51.29
47080;BME280;33067;49.296;14.470;2023-01-24T03:54:10;98592.37;;;3.76;51.04
47080;BME280;33067;49.296;14.470;2023-01-24T03:56:35;98591.85;;;3.44;51.46
47080;BME280;33067;49.296;14.470;2023-01-24T03:59:01;98592.60;;;3.70;51.10
47080;BME280;33067;49.296;14.470;2023-01-24T04:01:26;98589.96;;;4.19;50.38
47080;BME280;33067;49.296;14.470;2023-01-24T04:03:52;98587.62;;;3.76;50.22
47080;BME280;33067;49.296;14.470;2023-01-24T04:06:17;98586.26;;;4.02;49.96
47080;BME280;33067;49.296;14.470;2023-01-24T04:08:43;98591.23;;;2.75;52.05
47080;BME280;33067;49.296;14.470;2023-01-24T04:11:08;98590.32;;;3.09;52.61
47080;BME280;33067;49.296;14.470;2023-01-24T04:13:33;98584.60;;;3.42;51.98
47080;BME280;33067;49.296;14.470;2023-01-24T04:15:59;98584.30;;;3.59;51.89
47080;BME280;33067;49.296;14.470;2023-01-24T04:18:25;98583.06;;;3.06;51.64
47080;BME280;33067;49.296;14.470;2023-01-24T04:20:50;98584.18;;;3.66;50.66
47080;BME280;33067;49.296;14.470;2023-01-24T04:23:15;98587.66;;;3.09;52.14
47080;BME280;33067;49.296;14.470;2023-01-24T04:25:41;98585.74;;;3.73;51.55
47080;BME280;33067;49.296;14.470;2023-01-24T04:28:06;98583.35;;;3.41;50.82
47080;BME280;33067;49.296;14.470;2023-01-24T04:30:32;98591.17;;;3.02;52.55
47080;BME280;33067;49.296;14.470;2023-01-24T04:32:57;98587.63;;;3.47;52.19
47080;BME280;33067;49.296;14.470;2023-01-24T04:35:25;98587.21;;;3.55;51.57
47080;BME280;33067;49.296;14.470;2023-01-24T04:37:48;98587.76;;;3.42;51.89
47080;BME280;33067;49.296;14.470;2023-01-24T04:40:14;98593.10;;;2.84;52.00
47080;BME280;33067;49.296;14.470;2023-01-24T04:42:39;98586.24;;;3.36;51.87
47080;BME280;33067;49.296;14.470;2023-01-24T04:45:05;98583.92;;;3.44;51.83
47080;BME280;33067;49.296;14.470;2023-01-24T04:47:30;98593.59;;;2.18;54.77
47080;BME280;33067;49.296;14.470;2023-01-24T04:49:56;98594.22;;;2.67;53.34
47080;BME280;33067;49.296;14.470;2023-01-24T04:52:21;98593.14;;;3.04;52.81
47080;BME280;33067;49.296;14.470;2023-01-24T04:54:47;98592.19;;;3.22;52.63
47080;BME280;33067;49.296;14.470;2023-01-24T04:57:12;98595.96;;;2.82;53.40
47080;BME280;33067;49.296;14.470;2023-01-24T04:59:38;98596.61;;;3.04;52.85
47080;BME280;33067;49.296;14.470;2023-01-24T05:02:03;98597.96;;;3.29;52.32
47080;BME280;33067;49.296;14.470;2023-01-24T05:04:28;98597.57;;;3.16;52.41
47080;BME280;33067;49.296;14.470;2023-01-24T05:06:54;98592.09;;;3.48;51.74
47080;BME280;33067;49.296;14.470;2023-01-24T05:09:19;98586.73;;;3.17;52.20
47080;BME280;33067;49.296;14.470;2023-01-24T05:11:44;98584.49;;;3.41;51.72
47080;BME280;33067;49.296;14.470;2023-01-24T05:14:10;98586.84;;;3.83;51.28
47080;BME280;33067;49.296;14.470;2023-01-24T05:16:35;98585.33;;;4.03;51.13
47080;BME280;33067;49.296;14.470;2023-01-24T05:19:00;98591.94;;;3.46;51.25
47080;BME280;33067;49.296;14.470;2023-01-24T05:21:25;98594.23;;;3.13;52.75
47080;BME280;33067;49.296;14.470;2023-01-24T05:23:52;98593.00;;;3.66;52.24
47080;BME280;33067;49.296;14.470;2023-01-24T05:26:16;98590.01;;;3.48;51.89
47080;BME280;33067;49.296;14.470;2023-01-24T05:28:42;98591.47;;;3.55;51.86
47080;BME280;33067;49.296;14.470;2023-01-24T05:31:08;98594.48;;;3.64;51.54
47080;BME280;33067;49.296;14.470;2023-01-24T05:33:34;98598.72;;;3.77;51.70
47080;BME280;33067;49.296;14.470;2023-01-24T05:36:00;98609.55;;;3.42;51.83
47080;BME280;33067;49.296;14.470;2023-01-24T05:38:24;98607.75;;;3.70;51.67
47080;BME280;33067;49.296;14.470;2023-01-24T05:40:50;98605.08;;;3.77;51.62
47080;BME280;33067;49.296;14.470;2023-01-24T05:43:15;98605.10;;;3.61;51.15
47080;BME280;33067;49.296;14.470;2023-01-24T05:45:41;98604.11;;;3.87;51.22
47080;BME280;33067;49.296;14.470;2023-01-24T05:48:06;98605.61;;;3.45;51.36
47080;BME280;33067;49.296;14.470;2023-01-24T05:50:31;98606.28;;;3.42;51.47
47080;BME280;33067;49.296;14.470;2023-01-24T05:52:57;98609.25;;;3.53;51.03
47080;BME280;33067;49.296;14.470;2023-01-24T05:55:22;98612.97;;;3.98;50.81
47080;BME280;33067;49.296;14.470;2023-01-24T05:57:48;98613.22;;;3.99;50.15
47080;BME280;33067;49.296;14.470;2023-01-24T06:00:14;98612.63;;;4.48;49.75
47080;BME280;33067;49.296;14.470;2023-01-24T06:02:38;98615.00;;;4.21;49.44
47080;BME280;33067;49.296;14.470;2023-01-24T06:05:05;98617.22;;;4.15;49.76
47080;BME280;33067;49.296;14.470;2023-01-24T06:07:29;98617.68;;;4.29;49.23
47080;BME280;33067;49.296;14.470;2023-01-24T06:09:55;98621.36;;;3.94;50.03
47080;BME280;33067;49.296;14.470;2023-01-24T06:12:20;98624.26;;;4.03;49.91
47080;BME280;33067;49.296;14.470;2023-01-24T06:14:45;98624.89;;;3.94;50.19
47080;BME280;33067;49.296;14.470;2023-01-24T06:17:11;98627.15;;;4.15;49.65
47080;BME280;33067;49.296;14.470;2023-01-24T06:19:37;98627.21;;;4.61;49.21
47080;BME280;33067;49.296;14.470;2023-01-24T06:22:09;98631.49;;;4.18;49.39
47080;BME280;33067;49.296;14.470;2023-01-24T06:24:28;98632.07;;;4.39;49.47
47080;BME280;33067;49.296;14.470;2023-01-24T06:26:54;98634.35;;;4.48;49.24
47080;BME280;33067;49.296;14.470;2023-01-24T06:29:20;98636.72;;;4.18;48.90
47080;BME280;33067;49.296;14.470;2023-01-24T06:31:51;98641.85;;;4.09;49.60
47080;BME280;33067;49.296;14.470;2023-01-24T06:34:21;98645.62;;;4.09;49.58
47080;BME280;33067;49.296;14.470;2023-01-24T06:36:44;98646.94;;;3.78;50.27
47080;BME280;33067;49.296;14.470;2023-01-24T06:39:01;98650.47;;;3.75;50.21
47080;BME280;33067;49.296;14.470;2023-01-24T06:41:26;98656.39;;;3.73;51.30
47080;BME280;33067;49.296;14.470;2023-01-24T06:43:52;98650.28;;;3.44;51.41
47080;BME280;33067;49.296;14.470;2023-01-24T06:46:17;98660.80;;;3.37;50.69
47080;BME280;33067;49.296;14.470;2023-01-24T06:48:44;98668.18;;;3.41;51.07
47080;BME280;33067;49.296;14.470;2023-01-24T06:51:10;98673.57;;;2.96;51.76
47080;BME280;33067;49.296;14.470;2023-01-24T06:53:34;98674.59;;;2.84;52.32
47080;BME280;33067;49.296;14.470;2023-01-24T06:55:59;98674.99;;;3.53;51.66
47080;BME280;33067;49.296;14.470;2023-01-24T06:58:24;98675.28;;;3.57;52.01
47080;BME280;33067;49.296;14.470;2023-01-24T07:00:51;98677.04;;;3.70;51.54
47080;BME280;33067;49.296;14.470;2023-01-24T07:03:15;98678.60;;;3.09;52.80
47080;BME280;33067;49.296;14.470;2023-01-24T07:05:41;98679.90;;;2.92;52.99
47080;BME280;33067;49.296;14.470;2023-01-24T07:08:06;98677.76;;;3.38;52.31
47080;BME280;33067;49.296;14.470;2023-01-24T07:10:31;98684.77;;;3.35;51.39
47080;BME280;33067;49.296;14.470;2023-01-24T07:12:56;98694.47;;;2.56;52.28
47080;BME280;33067;49.296;14.470;2023-01-24T07:15:22;98690.25;;;3.46;51.82
47080;BME280;33067;49.296;14.470;2023-01-24T07:17:47;98694.38;;;3.59;51.49
47080;BME280;33067;49.296;14.470;2023-01-24T07:20:13;98694.71;;;3.63;51.55
47080;BME280;33067;49.296;14.470;2023-01-24T07:22:40;98701.96;;;3.30;51.89
47080;BME280;33067;49.296;14.470;2023-01-24T07:25:04;98698.44;;;3.32;51.27
47080;BME280;33067;49.296;14.470;2023-01-24T07:27:29;98700.23;;;3.72;50.48
47080;BME280;33067;49.296;14.470;2023-01-24T07:29:54;98696.68;;;4.12;50.02
47080;BME280;33067;49.296;14.470;2023-01-24T07:32:19;98700.69;;;3.75;49.88
47080;BME280;33067;49.296;14.470;2023-01-24T07:34:44;98703.82;;;3.79;50.26
47080;BME280;33067;49.296;14.470;2023-01-24T07:37:10;98699.40;;;4.01;49.60
47080;BME280;33067;49.296;14.470;2023-01-24T07:39:36;98700.24;;;4.44;48.66
47080;BME280;33067;49.296;14.470;2023-01-24T07:42:01;98701.41;;;4.44;48.52
47080;BME280;33067;49.296;14.470;2023-01-24T07:44:27;98706.85;;;4.21;48.96
47080;BME280;33067;49.296;14.470;2023-01-24T07:46:53;98712.85;;;3.91;49.60
47080;BME280;33067;49.296;14.470;2023-01-24T07:49:18;98716.99;;;4.24;49.13
47080;BME280;33067;49.296;14.470;2023-01-24T07:51:43;98720.24;;;4.48;48.60
47080;BME280;33067;49.296;14.470;2023-01-24T07:54:09;98721.23;;;4.41;48.57
47080;BME280;33067;49.296;14.470;2023-01-24T07:56:34;98721.75;;;4.27;48.81
47080;BME280;33067;49.296;14.470;2023-01-24T07:59:00;98723.81;;;4.71;48.18
47080;BME280;33067;49.296;14.470;2023-01-24T08:01:26;98725.46;;;4.15;48.67
47080;BME280;33067;49.296;14.470;2023-01-24T08:03:54;98725.37;;;4.13;48.77
47080;BME280;33067;49.296;14.470;2023-01-24T08:06:16;98731.59;;;3.69;49.41
47080;BME280;33067;49.296;14.470;2023-01-24T08:08:41;98730.97;;;4.00;48.57
47080;BME280;33067;49.296;14.470;2023-01-24T08:11:07;98734.42;;;3.82;49.56
47080;BME280;33067;49.296;14.470;2023-01-24T08:13:33;98730.32;;;3.64;48.96
47080;BME280;33067;49.296;14.470;2023-01-24T08:15:59;98734.41;;;3.02;49.98
47080;BME280;33067;49.296;14.470;2023-01-24T08:18:24;98734.73;;;3.81;49.34
47080;BME280;33067;49.296;14.470;2023-01-24T08:20:49;98738.64;;;3.38;49.85
47080;BME280;33067;49.296;14.470;2023-01-24T08:23:14;98742.85;;;3.60;50.35
47080;BME280;33067;49.296;14.470;2023-01-24T08:25:40;98741.52;;;4.01;49.30
47080;BME280;33067;49.296;14.470;2023-01-24T08:28:05;98744.32;;;4.03;48.84
47080;BME280;33067;49.296;14.470;2023-01-24T08:30:31;98743.38;;;4.22;48.28
47080;BME280;33067;49.296;14.470;2023-01-24T08:33:00;98739.85;;;4.29;48.17
47080;BME280;33067;49.296;14.470;2023-01-24T08:35:22;98748.53;;;3.75;49.18
47080;BME280;33067;49.296;14.470;2023-01-24T08:37:48;98747.74;;;3.58;49.98
47080;BME280;33067;49.296;14.470;2023-01-24T08:40:13;98743.43;;;4.01;48.68
47080;BME280;33067;49.296;14.470;2023-01-24T08:42:38;98747.37;;;3.83;48.99
47080;BME280;33067;49.296;14.470;2023-01-24T08:45:04;98748.82;;;4.05;49.00
47080;BME280;33067;49.296;14.470;2023-01-24T08:47:29;98750.82;;;3.87;48.63
47080;BME280;33067;49.296;14.470;2023-01-24T08:49:55;98755.03;;;3.76;48.65
47080;BME280;33067;49.296;14.470;2023-01-24T08:52:21;98752.45;;;4.06;48.48
47080;BME280;33067;49.296;14.470;2023-01-24T08:54:46;98748.39;;;4.53;47.52
47080;BME280;33067;49.296;14.470;2023-01-24T08:57:11;98751.23;;;4.31;47.59
47080;BME280;33067;49.296;14.470;2023-01-24T08:59:37;98749.64;;;4.81;46.94
47080;BME280;33067;49.296;14.470;2023-01-24T09:02:04;98756.13;;;4.16;48.24
47080;BME280;33067;49.296;14.470;2023-01-24T09:04:28;98757.12;;;4.03;48.48
47080;BME280;33067;49.296;14.470;2023-01-24T09:06:53;98757.09;;;4.17;47.92
47080;BME280;33067;49.296;14.470;2023-01-24T09:09:19;98754.21;;;4.42;47.83
47080;BME280;33067;49.296;14.470;2023-01-24T09:11:45;98755.50;;;4.25;47.63
47080;BME280;33067;49.296;14.470;2023-01-24T09:14:10;98761.31;;;4.41;47.71
47080;BME280;33067;49.296;14.470;2023-01-24T09:16:35;98765.89;;;4.32;47.48
47080;BME280;33067;49.296;14.470;2023-01-24T09:19:01;98766.84;;;4.00;48.08
47080;BME280;33067;49.296;14.470;2023-01-24T09:21:26;98768.33;;;4.39;47.51
47080;BME280;33067;49.296;14.470;2023-01-24T09:23:54;98768.32;;;4.00;48.16
47080;BME280;33067;49.296;14.470;2023-01-24T09:26:17;98763.39;;;4.46;47.63
47080;BME280;33067;49.296;14.470;2023-01-24T09:28:43;98766.43;;;4.66;47.35
47080;BME280;33067;49.296;14.470;2023-01-24T09:31:09;98766.49;;;4.77;46.47
47080;BME280;33067;49.296;14.470;2023-01-24T09:33:35;98765.50;;;4.32;47.02
47080;BME280;33067;49.296;14.470;2023-01-24T09:36:01;98772.45;;;4.47;47.30
47080;BME280;33067;49.296;14.470;2023-01-24T09:38:27;98773.15;;;4.93;46.33
47080;BME280;33067;49.296;14.470;2023-01-24T09:40:56;98775.76;;;4.39;46.90
47080;BME280;33067;49.296;14.470;2023-01-24T09:43:30;98776.00;;;3.50;48.74
47080;BME280;33067;49.296;14.470;2023-01-24T09:45:45;98773.79;;;4.74;47.68
47080;BME280;33067;49.296;14.470;2023-01-24T09:48:12;98768.73;;;4.57;47.68
47080;BME280;33067;49.296;14.470;2023-01-24T09:50:37;98767.67;;;4.73;47.08
47080;BME280;33067;49.296;14.470;2023-01-24T09:52:59;98769.28;;;4.90;46.26
47080;BME280;33067;49.296;14.470;2023-01-24T09:55:27;98769.13;;;4.64;46.57
47080;BME280;33067;49.296;14.470;2023-01-24T09:57:52;98768.32;;;5.17;46.10
47080;BME280;33067;49.296;14.470;2023-01-24T10:00:19;98765.36;;;4.91;45.74
47080;BME280;33067;49.296;14.470;2023-01-24T10:02:40;98761.78;;;4.51;45.89
47080;BME280;33067;49.296;14.470;2023-01-24T10:05:12;98764.02;;;4.40;46.28
47080;BME280;33067;49.296;14.470;2023-01-24T10:07:51;98768.30;;;3.82;47.60
47080;BME280;33067;49.296;14.470;2023-01-24T10:10:05;98764.84;;;3.89;47.68
47080;BME280;33067;49.296;14.470;2023-01-24T10:12:34;98761.46;;;4.16;47.37
47080;BME280;33067;49.296;14.470;2023-01-24T10:14:55;98757.26;;;4.65;46.55
47080;BME280;33067;49.296;14.470;2023-01-24T10:17:26;98757.62;;;4.65;46.51
47080;BME280;33067;49.296;14.470;2023-01-24T10:19:48;98754.34;;;4.99;46.66
47080;BME280;33067;49.296;14.470;2023-01-24T10:22:13;98752.67;;;5.07;46.30
47080;BME280;33067;49.296;14.470;2023-01-24T10:24:32;98752.06;;;5.50;45.66
47080;BME280;33067;49.296;14.470;2023-01-24T10:26:55;98750.69;;;5.36;45.55
47080;BME280;33067;49.296;14.470;2023-01-24T10:29:22;98749.16;;;5.15;45.39
47080;BME280;33067;49.296;14.470;2023-01-24T10:31:52;98747.19;;;4.66;46.02
47080;BME280;33067;49.296;14.470;2023-01-24T10:34:13;98746.41;;;5.07;45.61
47080;BME280;33067;49.296;14.470;2023-01-24T10:36:40;98745.30;;;4.81;45.77
47080;BME280;33067;49.296;14.470;2023-01-24T10:39:02;98746.25;;;4.96;46.25
47080;BME280;33067;49.296;14.470;2023-01-24T10:41:31;98742.82;;;4.23;47.02
47080;BME280;33067;49.296;14.470;2023-01-24T10:43:58;98742.84;;;4.06;47.28
47080;BME280;33067;49.296;14.470;2023-01-24T10:46:31;98741.05;;;4.59;46.51
47080;BME280;33067;49.296;14.470;2023-01-24T10:48:46;98740.28;;;4.15;47.39
47080;BME280;33067;49.296;14.470;2023-01-24T10:51:12;98736.94;;;4.33;47.15
47080;BME280;33067;49.296;14.470;2023-01-24T10:53:35;98736.29;;;4.64;47.03
47080;BME280;33067;49.296;14.470;2023-01-24T10:56:02;98734.63;;;4.89;46.83
47080;BME280;33067;49.296;14.470;2023-01-24T10:58:34;98732.13;;;4.49;46.92
47080;BME280;33067;49.296;14.470;2023-01-24T11:00:56;98731.33;;;4.48;46.70
47080;BME280;33067;49.296;14.470;2023-01-24T11:03:19;98732.85;;;4.65;46.61
47080;BME280;33067;49.296;14.470;2023-01-24T11:05:46;98731.75;;;4.34;46.63
47080;BME280;33067;49.296;14.470;2023-01-24T11:08:15;98728.72;;;4.90;46.51
47080;BME280;33067;49.296;14.470;2023-01-24T11:10:36;98728.98;;;4.89;46.14
47080;BME280;33067;49.296;14.470;2023-01-24T11:13:01;98725.77;;;4.40;46.90
47080;BME280;33067;49.296;14.470;2023-01-24T11:15:26;98720.88;;;4.63;46.75
47080;BME280;33067;49.296;14.470;2023-01-24T11:17:55;98718.80;;;4.14;48.73
47080;BME280;33067;49.296;14.470;2023-01-24T11:20:24;98717.74;;;4.35;48.14
47080;BME280;33067;49.296;14.470;2023-01-24T11:22:41;98715.58;;;4.59;47.95
47080;BME280;33067;49.296;14.470;2023-01-24T11:25:13;98712.02;;;3.91;48.39
47080;BME280;33067;49.296;14.470;2023-01-24T11:30:14;98705.36;;;3.90;48.04
47080;BME280;33067;49.296;14.470;2023-01-24T11:32:35;98706.78;;;3.11;51.05
47080;BME280;33067;49.296;14.470;2023-01-24T11:34:56;98701.99;;;3.75;49.00
47080;BME280;33067;49.296;14.470;2023-01-24T11:37:35;98701.38;;;3.89;49.36
47080;BME280;33067;49.296;14.470;2023-01-24T11:39:45;98698.92;;;3.72;50.39
47080;BME280;33067;49.296;14.470;2023-01-24T11:42:11;98699.29;;;4.01;49.91
47080;BME280;33067;49.296;14.470;2023-01-24T11:44:41;98694.48;;;3.80;50.28
47080;BME280;33067;49.296;14.470;2023-01-24T11:47:00;98695.69;;;3.65;50.27
47080;BME280;33067;49.296;14.470;2023-01-24T11:51:52;98687.04;;;3.88;49.86
47080;BME280;33067;49.296;14.470;2023-01-24T11:54:23;98693.63;;;3.38;50.42
47080;BME280;33067;49.296;14.470;2023-01-24T11:56:43;98691.55;;;3.83;50.81
47080;BME280;33067;49.296;14.470;2023-01-24T11:59:19;98690.25;;;3.32;50.93
47080;BME280;33067;49.296;14.470;2023-01-24T12:01:35;98691.85;;;3.10;52.69
47080;BME280;33067;49.296;14.470;2023-01-24T12:04:07;98691.55;;;2.89;52.62
47080;BME280;33067;49.296;14.470;2023-01-24T12:06:26;98687.45;;;3.94;50.92
47080;BME280;33067;49.296;14.470;2023-01-24T12:08:55;98687.72;;;3.63;50.79
47080;BME280;33067;49.296;14.470;2023-01-24T12:11:15;98678.46;;;3.85;49.79
47080;BME280;33067;49.296;14.470;2023-01-24T12:13:42;98686.74;;;3.55;50.54
47080;BME280;33067;49.296;14.470;2023-01-24T12:16:12;98685.42;;;2.85;52.35
47080;BME280;33067;49.296;14.470;2023-01-24T12:18:38;98678.84;;;3.81;50.50
47080;BME280;33067;49.296;14.470;2023-01-24T12:20:59;98676.58;;;4.04;50.19
47080;BME280;33067;49.296;14.470;2023-01-24T12:23:21;98682.97;;;3.41;51.29
47080;BME280;33067;49.296;14.470;2023-01-24T12:25:45;98682.92;;;3.66;51.57
47080;BME280;33067;49.296;14.470;2023-01-24T12:28:14;98676.69;;;3.77;50.07
47080;BME280;33067;49.296;14.470;2023-01-24T12:30:39;98678.07;;;3.74;49.70
47080;BME280;33067;49.296;14.470;2023-01-24T12:33:05;98679.16;;;4.34;49.52
47080;BME280;33067;49.296;14.470;2023-01-24T12:35:29;98679.66;;;3.81;48.94
47080;BME280;33067;49.296;14.470;2023-01-24T12:37:57;98679.36;;;4.09;47.60
47080;BME280;33067;49.296;14.470;2023-01-24T12:40:23;98674.71;;;4.45;47.03
47080;BME280;33067;49.296;14.470;2023-01-24T12:42:52;98670.79;;;4.64;46.68
47080;BME280;33067;49.296;14.470;2023-01-24T12:45:14;98675.82;;;4.45;46.40
47080;BME280;33067;49.296;14.470;2023-01-24T12:47:36;98677.63;;;4.39;45.60
47080;BME280;33067;49.296;14.470;2023-01-24T12:50:11;98681.34;;;4.52;46.42
47080;BME280;33067;49.296;14.470;2023-01-24T12:52:29;98682.66;;;5.04;45.45
47080;BME280;33067;49.296;14.470;2023-01-24T12:54:52;98681.51;;;4.40;46.03
47080;BME280;33067;49.296;14.470;2023-01-24T12:57:20;98677.65;;;4.81;45.58